Palmer, Alaska
Current Conditions -  °F | °C
As of 4:53 PM on Saturday 22 Nov 2014 (Local Time) from PAAQ Reporting Station
Overcast Overcast  
Wind Chill: 23°   Ceiling: 7000
Heat Index: 29°   Visibility: 10mi
Dew Point: 20°   Wind: 6mph
Humidity: 69%   Direction: 180°S
Pressure: 29.13"   Gusts: NA
Location:  61.6°N, 149.11°W
Report Text: PAAQ 230153Z 18005KT 10SM SCT050 BKN070 OVC090 M02/M07 A2913 RMK AO2 SLP869 T10171067
Loading
Personal Weather Stations






























Interactive Weather Map New forecast layout! Learn more

10-Day Weather Forecast

Advertisements
Track Severe Weather on mobile